Time;durP1;ratioP1;P1;durP2;ratioP2;P2;SDS_P1;SDS_P2;PMS_P1;PMS_P2;Temp;Humidity;BMP_temperature;BMP_pressure;BME280_temperature;BME280_humidity;BME280_pressure;Samples;Min_cycle;Max_cycle;Signal;HPM_P1;HPM_P2
2023/12/23 00:00:14;;;;;;;7.38;2.17;;;;;;;;;;4808570;29;20051;-94
2023/12/23 00:02:40;;;;;;;12.45;2.90;;;;;;;;;;4792428;29;20046;-92
2023/12/23 00:05:06;;;;;;;9.15;3.13;;;;;;;;;;4791872;29;20099;-94
2023/12/23 00:07:33;;;;;;;17.92;3.47;;;;;;;;;;4792127;29;20530;-96
2023/12/23 00:10:03;;;;;;;11.98;4.55;;;;;;;;;;4786979;29;20161;-96
2023/12/23 00:12:32;;;;;;;11.02;3.83;;;;;;;;;;4804102;29;20054;-94
2023/12/23 00:14:58;;;;;;;26.40;5.25;;;;;;;;;;4803916;29;20500;-95
2023/12/23 00:17:24;;;;;;;18.77;3.65;;;;;;;;;;4805857;29;20099;-94
2023/12/23 00:19:53;;;;;;;23.90;4.78;;;;;;;;;;4794439;29;20058;-92
2023/12/23 00:22:23;;;;;;;18.95;4.15;;;;;;;;;;4799016;29;20047;-93
2023/12/23 00:24:52;;;;;;;29.33;5.53;;;;;;;;;;4794424;29;20064;-96
2023/12/23 00:27:19;;;;;;;19.27;4.88;;;;;;;;;;4795361;29;20516;-94
2023/12/23 00:29:48;;;;;;;19.38;4.03;;;;;;;;;;4801192;29;20082;-96
2023/12/23 00:32:16;;;;;;;21.17;5.10;;;;;;;;;;4816010;29;20454;-95
2023/12/23 00:34:43;;;;;;;21.52;3.78;;;;;;;;;;4782115;29;20050;-96
2023/12/23 00:37:09;;;;;;;19.27;4.03;;;;;;;;;;4785722;29;20797;-95
2023/12/23 00:39:39;;;;;;;12.18;3.50;;;;;;;;;;4786243;29;20065;-95
2023/12/23 00:42:05;;;;;;;22.88;4.38;;;;;;;;;;4805592;29;20058;-94
2023/12/23 00:44:37;;;;;;;8.48;3.13;;;;;;;;;;4782220;29;20130;-95
2023/12/23 00:47:03;;;;;;;17.52;3.55;;;;;;;;;;4806789;29;20092;-94
2023/12/23 00:49:29;;;;;;;18.88;3.22;;;;;;;;;;4794039;29;20046;-94
2023/12/23 00:51:56;;;;;;;9.15;2.80;;;;;;;;;;4788948;29;20051;-92
2023/12/23 00:54:23;;;;;;;14.27;3.45;;;;;;;;;;4802377;29;20118;-96
2023/12/23 00:56:49;;;;;;;20.20;3.58;;;;;;;;;;4790429;29;20047;-94
2023/12/23 00:59:15;;;;;;;13.85;2.67;;;;;;;;;;4787085;29;20051;-94
2023/12/23 01:01:44;;;;;;;12.32;3.65;;;;;;;;;;4795649;29;20062;-91
2023/12/23 01:04:10;;;;;;;13.18;2.50;;;;;;;;;;4795264;29;20055;-92
2023/12/23 01:06:36;;;;;;;10.00;2.72;;;;;;;;;;4793134;29;20062;-92
2023/12/23 01:09:04;;;;;;;18.98;3.15;;;;;;;;;;4794486;29;20047;-95
2023/12/23 01:11:30;;;;;;;12.32;2.80;;;;;;;;;;4769356;29;20077;-96
2023/12/23 01:13:56;;;;;;;9.65;3.20;;;;;;;;;;4792291;29;20054;-95
2023/12/23 01:16:22;;;;;;;12.02;2.67;;;;;;;;;;4775861;29;20054;-93
2023/12/23 01:18:48;;;;;;;9.40;2.08;;;;;;;;;;4791546;29;20058;-96
2023/12/23 01:21:14;;;;;;;7.95;3.33;;;;;;;;;;4778411;29;20115;-96
2023/12/23 01:23:41;;;;;;;11.05;2.45;;;;;;;;;;4775589;30;20382;-96
2023/12/23 01:26:08;;;;;;;35.50;3.28;;;;;;;;;;4780957;29;20093;-94
2023/12/23 01:28:34;;;;;;;9.70;2.30;;;;;;;;;;4807226;29;20123;-91
2023/12/23 01:31:00;;;;;;;14.43;2.67;;;;;;;;;;4791362;29;20493;-93
2023/12/23 01:33:26;;;;;;;5.20;2.58;;;;;;;;;;4789284;30;20116;-96
2023/12/23 01:35:52;;;;;;;7.93;2.28;;;;;;;;;;4776532;30;20086;-96
2023/12/23 01:38:18;;;;;;;11.95;3.50;;;;;;;;;;4792473;29;20127;-96
2023/12/23 01:40:44;;;;;;;11.27;3.28;;;;;;;;;;4794807;29;20531;-96
2023/12/23 01:43:13;;;;;;;6.57;1.95;;;;;;;;;;4772885;30;20055;-92
2023/12/23 01:45:39;;;;;;;12.43;3.42;;;;;;;;;;4792340;29;20055;-96
2023/12/23 01:48:06;;;;;;;18.77;2.70;;;;;;;;;;4789178;30;20494;-96
2023/12/23 01:50:32;;;;;;;10.05;2.28;;;;;;;;;;4805589;29;20047;-96
2023/12/23 01:53:00;;;;;;;12.77;2.25;;;;;;;;;;4797820;29;20063;-96
2023/12/23 01:55:27;;;;;;;10.88;2.20;;;;;;;;;;4802738;29;20078;-92
2023/12/23 01:57:54;;;;;;;9.38;3.00;;;;;;;;;;4801957;29;20149;-96
2023/12/23 02:00:21;;;;;;;11.40;2.63;;;;;;;;;;4780055;30;20043;-96
2023/12/23 02:02:47;;;;;;;11.13;3.13;;;;;;;;;;4792569;29;20059;-95
2023/12/23 02:05:13;;;;;;;10.73;2.92;;;;;;;;;;4816970;29;20059;-96
2023/12/23 02:07:42;;;;;;;10.25;3.30;;;;;;;;;;4820263;29;20075;-96
2023/12/23 02:10:08;;;;;;;10.13;3.45;;;;;;;;;;4800004;30;20051;-92
2023/12/23 02:12:34;;;;;;;9.93;2.55;;;;;;;;;;4803690;29;20067;-93
2023/12/23 02:15:03;;;;;;;14.68;2.72;;;;;;;;;;4793887;29;20138;-91
2023/12/23 02:17:29;;;;;;;10.43;3.30;;;;;;;;;;4800030;29;20066;-91
2023/12/23 02:19:55;;;;;;;15.15;2.78;;;;;;;;;;4795791;29;20054;-91
2023/12/23 02:22:21;;;;;;;18.00;3.00;;;;;;;;;;4796201;29;20086;-91
2023/12/23 02:24:47;;;;;;;8.27;2.65;;;;;;;;;;4792447;30;20059;-90
2023/12/23 02:27:15;;;;;;;10.68;2.40;;;;;;;;;;4778012;30;20055;-90
2023/12/23 02:29:42;;;;;;;8.02;2.20;;;;;;;;;;4797945;29;20418;-91
2023/12/23 02:32:09;;;;;;;23.77;3.85;;;;;;;;;;4783943;30;20051;-91
2023/12/23 02:34:35;;;;;;;10.45;1.85;;;;;;;;;;4801262;29;20059;-89
2023/12/23 02:37:01;;;;;;;10.02;2.28;;;;;;;;;;4807111;29;20055;-90
2023/12/23 02:39:27;;;;;;;8.48;1.73;;;;;;;;;;4795353;29;20093;-91
2023/12/23 02:41:53;;;;;;;9.27;2.20;;;;;;;;;;4796551;29;20065;-91
2023/12/23 02:44:19;;;;;;;9.50;2.33;;;;;;;;;;4779792;29;20055;-91
2023/12/23 02:46:45;;;;;;;11.77;1.92;;;;;;;;;;4793822;29;20146;-90
2023/12/23 02:49:11;;;;;;;7.60;1.60;;;;;;;;;;4794585;29;20054;-90
2023/12/23 02:51:37;;;;;;;9.35;2.22;;;;;;;;;;4791512;29;20050;-90
2023/12/23 02:54:04;;;;;;;5.30;1.95;;;;;;;;;;4793580;29;20227;-90
2023/12/23 02:56:30;;;;;;;8.52;1.98;;;;;;;;;;4797603;29;20063;-90
2023/12/23 02:58:57;;;;;;;11.40;2.60;;;;;;;;;;4788180;29;20055;-90
2023/12/23 03:01:23;;;;;;;9.70;2.20;;;;;;;;;;4796938;29;20075;-90
2023/12/23 03:03:49;;;;;;;12.15;2.53;;;;;;;;;;4798153;30;20059;-90
2023/12/23 03:06:15;;;;;;;15.80;2.83;;;;;;;;;;4782813;30;20052;-89
2023/12/23 03:08:42;;;;;;;17.13;4.85;;;;;;;;;;4781911;30;20066;-90
2023/12/23 03:11:08;;;;;;;9.05;1.92;;;;;;;;;;4784604;29;20043;-88
2023/12/23 03:13:34;;;;;;;12.20;2.00;;;;;;;;;;4797974;29;20055;-89
2023/12/23 03:16:00;;;;;;;3.97;1.75;;;;;;;;;;4797711;29;20057;-90
2023/12/23 03:18:26;;;;;;;17.60;2.10;;;;;;;;;;4811989;29;20108;-90
2023/12/23 03:20:52;;;;;;;12.95;2.30;;;;;;;;;;4796471;30;20081;-89
2023/12/23 03:23:18;;;;;;;9.30;3.00;;;;;;;;;;4781332;30;20058;-90
2023/12/23 03:25:45;;;;;;;10.30;2.00;;;;;;;;;;4784169;29;20055;-90
2023/12/23 03:28:11;;;;;;;19.38;2.80;;;;;;;;;;4792754;29;20110;-89
2023/12/23 03:30:37;;;;;;;13.60;1.85;;;;;;;;;;4781719;30;20050;-90
2023/12/23 03:33:19;;;;;;;3.83;1.52;;;;;;;;;;4819846;24;20051;-89
2023/12/23 03:35:46;;;;;;;10.50;2.13;;;;;;;;;;4802327;29;20055;-90
2023/12/23 03:38:32;;;;;;;4.13;1.70;;;;;;;;;;4810295;29;20114;-90
2023/12/23 03:43:42;;;;;;;5.25;2.30;;;;;;;;;;4831225;24;20055;-90
2023/12/23 03:46:09;;;;;;;4.63;1.60;;;;;;;;;;4791719;29;20062;-90
2023/12/23 03:48:36;;;;;;;11.13;2.22;;;;;;;;;;4782497;30;20055;-90
2023/12/23 03:51:05;;;;;;;7.68;1.83;;;;;;;;;;4773645;30;20089;-90
2023/12/23 03:53:34;;;;;;;14.38;2.90;;;;;;;;;;4813743;29;20137;-89
2023/12/23 03:56:01;;;;;;;10.45;1.52;;;;;;;;;;4788824;29;20058;-90
2023/12/23 03:58:30;;;;;;;7.03;1.80;;;;;;;;;;4802797;29;20058;-89
2023/12/23 04:00:56;;;;;;;8.23;1.70;;;;;;;;;;4802349;29;20081;-90
2023/12/23 04:03:24;;;;;;;8.00;2.00;;;;;;;;;;4802287;29;20051;-89
2023/12/23 04:06:09;;;;;;;4.28;1.83;;;;;;;;;;4806250;29;20053;-88
2023/12/23 04:08:39;;;;;;;6.07;2.78;;;;;;;;;;4788287;29;20050;-90
2023/12/23 04:11:08;;;;;;;9.70;2.85;;;;;;;;;;4793297;29;20059;-90
2023/12/23 04:13:41;;;;;;;4.78;1.63;;;;;;;;;;4783638;30;20127;-90
2023/12/23 04:16:17;;;;;;;6.18;1.95;;;;;;;;;;4783441;30;20051;-90
2023/12/23 04:18:43;;;;;;;8.70;1.67;;;;;;;;;;4768957;30;20403;-90
2023/12/23 04:21:10;;;;;;;4.85;1.88;;;;;;;;;;4815642;29;20062;-89
2023/12/23 04:23:37;;;;;;;5.95;2.03;;;;;;;;;;4765646;30;20142;-90
2023/12/23 04:26:03;;;;;;;6.75;1.70;;;;;;;;;;4780080;30;20063;-90
2023/12/23 04:28:29;;;;;;;6.57;1.80;;;;;;;;;;4746547;30;20128;-90
2023/12/23 04:30:56;;;;;;;6.70;2.65;;;;;;;;;;4770180;29;20115;-89
2023/12/23 04:33:23;;;;;;;4.57;1.65;;;;;;;;;;4763991;29;20087;-89
2023/12/23 04:35:49;;;;;;;7.38;2.28;;;;;;;;;;4801809;29;20105;-89
2023/12/23 04:38:35;;;;;;;5.40;1.83;;;;;;;;;;4782724;24;20138;-89
2023/12/23 04:41:09;;;;;;;3.33;1.38;;;;;;;;;;4810511;24;20043;-90
2023/12/23 04:43:35;;;;;;;6.05;1.40;;;;;;;;;;4767496;29;20063;-90
2023/12/23 04:46:03;;;;;;;9.30;1.73;;;;;;;;;;4782945;29;20050;-90
2023/12/23 04:48:30;;;;;;;13.48;2.25;;;;;;;;;;4779192;30;20059;-90
2023/12/23 04:50:58;;;;;;;2.67;1.33;;;;;;;;;;4749435;30;20085;-88
2023/12/23 04:53:32;;;;;;;10.88;2.45;;;;;;;;;;4786649;24;20063;-90
2023/12/23 04:56:00;;;;;;;3.78;1.85;;;;;;;;;;4812170;29;20495;-90
2023/12/23 04:58:27;;;;;;;9.82;1.98;;;;;;;;;;4783981;29;20508;-90
2023/12/23 05:00:53;;;;;;;6.78;2.00;;;;;;;;;;4783617;29;20050;-90
2023/12/23 05:03:23;;;;;;;9.00;2.30;;;;;;;;;;4780757;29;20055;-90
2023/12/23 05:05:50;;;;;;;5.15;1.60;;;;;;;;;;4781728;29;20420;-90
2023/12/23 05:08:16;;;;;;;7.68;1.75;;;;;;;;;;4801469;29;20055;-90
2023/12/23 05:10:44;;;;;;;6.45;1.92;;;;;;;;;;4790125;29;20054;-90
2023/12/23 05:13:11;;;;;;;2.95;1.90;;;;;;;;;;4783336;30;20062;-90
2023/12/23 05:15:37;;;;;;;14.50;2.72;;;;;;;;;;4798078;30;20099;-90
2023/12/23 05:18:10;;;;;;;5.97;1.50;;;;;;;;;;4784013;29;20054;-90
2023/12/23 05:20:36;;;;;;;8.15;2.17;;;;;;;;;;4799355;29;20139;-91
2023/12/23 05:23:06;;;;;;;2.47;1.65;;;;;;;;;;4813759;29;20058;-90
2023/12/23 05:25:37;;;;;;;5.60;2.13;;;;;;;;;;4813086;29;20061;-91
2023/12/23 05:28:05;;;;;;;3.63;1.85;;;;;;;;;;4796771;29;20119;-90
2023/12/23 05:30:31;;;;;;;2.28;1.70;;;;;;;;;;4793361;29;20051;-90
2023/12/23 05:32:57;;;;;;;5.15;1.50;;;;;;;;;;4792058;29;20055;-90
2023/12/23 05:35:23;;;;;;;3.95;1.50;;;;;;;;;;4791514;29;20054;-91
2023/12/23 05:37:49;;;;;;;3.38;1.52;;;;;;;;;;4762179;29;20182;-90
2023/12/23 05:40:15;;;;;;;5.15;2.00;;;;;;;;;;4802721;29;20054;-91
2023/12/23 05:42:41;;;;;;;4.82;1.80;;;;;;;;;;4805208;29;20058;-90
2023/12/23 05:45:08;;;;;;;4.03;1.90;;;;;;;;;;4804591;29;20085;-90
2023/12/23 05:47:34;;;;;;;3.10;1.45;;;;;;;;;;4804080;29;20051;-90
2023/12/23 05:50:18;;;;;;;3.97;1.77;;;;;;;;;;4814576;24;20050;-90
2023/12/23 05:52:52;;;;;;;6.70;1.85;;;;;;;;;;4848922;24;20077;-90
2023/12/23 05:55:23;;;;;;;3.83;1.23;;;;;;;;;;4819967;29;20057;-90
2023/12/23 05:57:55;;;;;;;5.32;1.50;;;;;;;;;;4799366;29;20050;-89
2023/12/23 06:00:24;;;;;;;2.85;1.70;;;;;;;;;;4828680;29;20082;-90
2023/12/23 06:02:52;;;;;;;1.65;1.40;;;;;;;;;;4850902;24;20076;-90
2023/12/23 06:05:21;;;;;;;1.63;1.20;;;;;;;;;;4832051;29;20082;-91
2023/12/23 06:07:57;;;;;;;1.88;1.27;;;;;;;;;;4833119;29;20031;-91
2023/12/23 06:10:28;;;;;;;3.47;1.30;;;;;;;;;;4816842;29;20034;-90
2023/12/23 06:12:54;;;;;;;1.65;1.40;;;;;;;;;;4798910;29;20070;-90
2023/12/23 06:15:22;;;;;;;2.03;1.60;;;;;;;;;;4813254;29;20137;-89
2023/12/23 06:18:07;;;;;;;2.55;1.55;;;;;;;;;;4828516;29;20051;-91
2023/12/23 06:20:34;;;;;;;2.85;1.50;;;;;;;;;;4800165;29;20035;-89
2023/12/23 06:23:00;;;;;;;3.33;1.70;;;;;;;;;;4813876;29;20035;-90
2023/12/23 06:25:45;;;;;;;3.15;1.17;;;;;;;;;;4814188;29;20050;-90
2023/12/23 06:28:17;;;;;;;4.25;1.23;;;;;;;;;;4836101;24;20048;-89
2023/12/23 06:30:53;;;;;;;3.25;1.25;;;;;;;;;;4810855;29;20042;-92
2023/12/23 06:33:37;;;;;;;2.92;1.20;;;;;;;;;;4800416;29;20160;-90
2023/12/23 06:36:12;;;;;;;3.80;1.17;;;;;;;;;;4813704;29;20031;-90
2023/12/23 06:38:41;;;;;;;2.63;1.20;;;;;;;;;;4815781;29;20110;-90
2023/12/23 06:41:20;;;;;;;3.15;1.40;;;;;;;;;;4842709;29;20054;-90
2023/12/23 06:43:48;;;;;;;2.38;0.80;;;;;;;;;;4820316;29;20133;-90
2023/12/23 06:46:15;;;;;;;6.45;1.30;;;;;;;;;;4800455;29;20397;-90
2023/12/23 06:48:44;;;;;;;3.30;1.10;;;;;;;;;;4817594;29;20046;-90
2023/12/23 06:51:19;;;;;;;1.70;1.17;;;;;;;;;;4843464;23;20053;-90
2023/12/23 06:53:45;;;;;;;3.00;2.05;;;;;;;;;;4839789;29;20060;-90
2023/12/23 06:56:30;;;;;;;4.72;1.20;;;;;;;;;;4871491;29;20110;-90
2023/12/23 06:59:09;;;;;;;3.83;1.50;;;;;;;;;;4806868;29;20079;-90
2023/12/23 07:01:47;;;;;;;1.08;0.98;;;;;;;;;;4835389;29;20092;-90
2023/12/23 07:04:35;;;;;;;2.22;1.63;;;5.40;99.90;;;;;;4820697;29;20213;-90
2023/12/23 07:07:32;;;;;;;3.00;1.23;;;;;;;;;;4827680;29;20045;-90
2023/12/23 07:10:25;;;;;;;4.75;1.77;;;;;;;;;;4858305;23;20099;-90
2023/12/23 07:13:06;;;;;;;3.10;1.40;;;;;;;;;;4769528;30;20063;-91
2023/12/23 07:15:34;;;;;;;3.13;1.42;;;;;;;;;;4751819;30;20124;-90
2023/12/23 07:18:25;;;;;;;3.40;1.20;;;;;;;;;;4752064;30;20049;-90
2023/12/23 07:26:06;;;;;;;2.50;1.20;;;;;;;;;;4833615;29;20047;-90
2023/12/23 07:28:35;;;;;;;2.88;1.20;;;;;;;;;;4823168;29;20401;-90
2023/12/23 07:31:20;;;;;;;3.78;1.65;;;;;;;;;;4830628;29;20049;-90
2023/12/23 07:37:03;;;;;;;6.70;1.30;;;;;;;;;;4827185;29;20046;-90
2023/12/23 07:39:53;;;;;;;3.63;1.33;;;;;;;;;;4817802;23;20054;-90
2023/12/23 07:42:37;;;;;;;1.70;1.13;;;;;;;;;;4837023;29;20105;-90
2023/12/23 07:45:11;;;;;;;2.03;1.40;;;;;;;;;;4802207;24;20066;-90
2023/12/23 07:47:44;;;;;;;1.90;1.20;;;;;;;;;;4792696;29;20090;-90
2023/12/23 07:50:16;;;;;;;1.40;1.30;;;;;;;;;;4801945;29;20119;-90
2023/12/23 07:53:06;;;;;;;2.67;1.30;;;;;;;;;;4806472;29;20492;-93
2023/12/23 07:56:00;;;;;;;3.35;2.00;;;5.50;99.90;;;;;;4879121;24;20069;-91
2023/12/23 07:59:08;;;;;;;2.47;1.50;;;;;;;;;;4824640;29;20051;-92
2023/12/23 08:01:43;;;;;;;1.98;1.48;;;;;;;;;;4827534;29;20050;-92
2023/12/23 08:07:09;;;;;;;2.53;1.77;;;;;;;;;;4836770;29;20062;-96
2023/12/23 08:09:35;;;;;;;2.80;2.03;;;;;;;;;;4816231;29;20114;-95
2023/12/23 08:12:01;;;;;;;4.28;1.33;;;;;;;;;;4822414;29;20055;-93
2023/12/23 08:14:27;;;;;;;2.00;1.48;;;;;;;;;;4815696;29;20054;-92
2023/12/23 08:16:54;;;;;;;1.50;1.40;;;;;;;;;;4806677;29;20057;-88
2023/12/23 08:19:20;;;;;;;1.65;1.17;;;;;;;;;;4811252;29;20095;-91
2023/12/23 08:21:46;;;;;;;2.05;1.38;;;;;;;;;;4797887;29;20050;-91
2023/12/23 08:24:13;;;;;;;3.13;1.95;;;;;;;;;;4800385;29;20062;-93
2023/12/23 08:26:39;;;;;;;3.00;1.67;;;;;;;;;;4798183;29;20058;-95
2023/12/23 08:29:05;;;;;;;1.60;1.38;;;;;;;;;;4811546;29;20062;-94
2023/12/23 08:31:31;;;;;;;1.75;1.30;;;;;;;;;;4796002;29;20499;-89
2023/12/23 08:33:59;;;;;;;1.70;1.20;;;;;;;;;;4798464;29;20061;-92
2023/12/23 08:36:25;;;;;;;1.73;1.40;;;;;;;;;;4803978;29;20058;-91
2023/12/23 08:39:01;;;;;;;2.42;1.40;;;;;;;;;;4813438;29;20091;-92
2023/12/23 08:41:29;;;;;;;2.45;1.60;;;;;;;;;;4822287;29;20058;-93
2023/12/23 08:43:58;;;;;;;1.20;1.10;;;;;;;;;;4835351;29;20115;-93
2023/12/23 08:46:24;;;;;;;2.80;1.42;;;;;;;;;;4823679;29;20056;-92
2023/12/23 08:48:50;;;;;;;1.40;1.00;;;;;;;;;;4799354;29;20084;-92
2023/12/23 08:51:17;;;;;;;2.67;1.67;;;;;;;;;;4813270;24;20050;-92
2023/12/23 08:53:45;;;;;;;2.97;1.40;;;;;;;;;;4787967;29;20057;-92
2023/12/23 08:56:15;;;;;;;2.88;1.98;;;;;;;;;;4822026;29;20197;-92
2023/12/23 08:58:44;;;;;;;1.83;1.40;;;;;;;;;;4791227;29;20129;-91
2023/12/23 09:01:17;;;;;;;2.53;1.80;;;;;;;;;;4808286;29;20046;-92
2023/12/23 09:03:50;;;;;;;2.97;1.90;;;;;;;;;;4838368;29;20074;-92
2023/12/23 09:06:43;;;;;;;3.42;1.90;;;;;;;;;;4811363;29;20046;-93
2023/12/23 09:09:11;;;;;;;2.85;1.98;;;;;;;;;;4795972;29;20051;-92
2023/12/23 09:11:56;;;;;;;2.28;2.08;;;;;;;;;;4799838;29;20122;-92
2023/12/23 09:14:23;;;;;;;3.35;2.60;;;;;;;;;;4775118;29;20516;-95
2023/12/23 09:16:50;;;;;;;2.85;2.35;;;;;;;;;;4774030;29;20604;-93
2023/12/23 09:19:16;;;;;;;4.65;3.30;;;;;;;;;;4768272;29;20577;-95
2023/12/23 09:21:42;;;;;;;2.63;2.38;;;;;;;;;;4773403;29;20130;-95
2023/12/23 09:24:08;;;;;;;3.20;2.60;;;;;;;;;;4773271;29;20129;-95
2023/12/23 09:26:35;;;;;;;4.40;2.40;;;;;;;;;;4787068;29;20081;-94
2023/12/23 09:29:01;;;;;;;2.13;1.80;;;;;;;;;;4773007;29;20058;-94
2023/12/23 09:31:27;;;;;;;1.73;1.60;;;;;;;;;;4771478;29;20066;-93
2023/12/23 09:33:53;;;;;;;1.90;1.80;;;;;;;;;;4767590;29;20150;-94
2023/12/23 09:36:19;;;;;;;1.40;1.30;;;;;;;;;;4772693;29;20051;-94
2023/12/23 09:38:45;;;;;;;1.40;1.30;;;;;;;;;;4805876;29;20062;-93
2023/12/23 09:41:12;;;;;;;2.00;1.70;;;;;;;;;;4798166;29;20050;-93
2023/12/23 09:43:38;;;;;;;2.53;2.00;;;;;;;;;;4789724;29;20055;-92
2023/12/23 09:46:04;;;;;;;1.48;1.38;;;;;;;;;;4792174;29;20429;-91
2023/12/23 09:48:30;;;;;;;1.50;1.40;;;;;;;;;;4774470;29;20055;-94
2023/12/23 09:51:31;;;;;;;2.08;1.88;;;;;;;;;;4779256;29;20051;-93
2023/12/23 09:54:08;;;;;;;1.60;1.50;;;;;;;;;;4809414;29;20054;-92
2023/12/23 09:56:35;;;;;;;1.55;1.40;;;;;;;;;;4804427;29;20050;-93
2023/12/23 09:59:01;;;;;;;1.77;1.40;;;;;;;;;;4804774;29;20054;-93
2023/12/23 10:01:27;;;;;;;1.15;1.00;;;;;;;;;;4794106;29;20058;-94
2023/12/23 10:03:53;;;;;;;1.60;1.50;;;;;;;;;;4792412;29;20055;-94
2023/12/23 10:06:19;;;;;;;3.40;1.17;;;;;;;;;;4777520;29;20051;-94
2023/12/23 10:08:46;;;;;;;1.40;1.30;;;;;;;;;;4804621;29;20051;-94
2023/12/23 10:11:12;;;;;;;1.92;1.70;;;;;;;;;;4790842;29;20514;-95
2023/12/23 10:13:39;;;;;;;2.90;1.73;;;;;;;;;;4791110;29;20054;-95
2023/12/23 10:16:06;;;;;;;1.52;1.27;;;;;;;;;;4778129;29;20137;-94
2023/12/23 10:18:32;;;;;;;4.80;1.42;;;;;;;;;;4796069;29;20110;-95
2023/12/23 10:20:58;;;;;;;1.73;1.38;;;;;;;;;;4791228;29;20059;-94
2023/12/23 10:23:24;;;;;;;2.13;1.52;;;;;;;;;;4792343;29;20050;-94
2023/12/23 10:25:53;;;;;;;2.08;1.40;;;;;;;;;;4778039;29;20087;-95
2023/12/23 10:28:21;;;;;;;1.20;1.10;;;;;;;;;;4778597;29;20058;-93
2023/12/23 10:30:48;;;;;;;1.45;0.95;;;;;;;;;;4821990;29;20058;-95
2023/12/23 10:33:15;;;;;;;2.28;1.42;;;;;;;;;;4789624;29;20116;-96
2023/12/23 10:35:45;;;;;;;1.80;1.52;;;;;;;;;;4797631;29;20051;-94
2023/12/23 10:38:22;;;;;;;1.67;1.48;;;;;;;;;;4798656;29;20143;-94
2023/12/23 10:41:00;;;;;;;1.40;1.30;;;;;;;;;;4793243;29;20054;-95
2023/12/23 10:43:26;;;;;;;1.15;1.05;;;;;;;;;;4795531;29;20058;-94
2023/12/23 10:45:53;;;;;;;1.85;1.40;;;;;;;;;;4795578;29;20062;-95
2023/12/23 10:48:20;;;;;;;1.10;1.05;;;;;;;;;;4802241;29;20058;-94
2023/12/23 10:50:48;;;;;;;1.48;1.30;;;;;;;;;;4806461;29;20466;-95
2023/12/23 10:53:17;;;;;;;1.75;1.23;;;;;;;;;;4787984;29;20058;-94
2023/12/23 10:55:44;;;;;;;1.20;1.10;;;;;;;;;;4792594;29;20053;-94
2023/12/23 10:58:12;;;;;;;3.58;1.00;;;;;;;;;;4794748;29;20058;-95
2023/12/23 11:00:39;;;;;;;0.90;0.90;;;;;;;;;;4794852;29;20050;-94
2023/12/23 11:03:05;;;;;;;1.08;0.98;;;;;;;;;;4793813;29;20058;-96
2023/12/23 11:05:33;;;;;;;0.77;0.75;;;;;;;;;;4793154;29;20129;-95
2023/12/23 11:08:02;;;;;;;0.80;0.80;;;;;;;;;;4792595;29;20580;-95
2023/12/23 11:10:30;;;;;;;0.80;0.80;;;;;;;;;;4791297;29;20054;-96
2023/12/23 11:12:57;;;;;;;0.82;0.82;;;;;;;;;;4785838;29;20062;-96
2023/12/23 11:15:24;;;;;;;0.85;0.85;;;;;;;;;;4792818;29;20084;-96
2023/12/23 11:17:50;;;;;;;0.90;0.90;;;;;;;;;;4792106;29;20058;-93
2023/12/23 11:20:33;;;;;;;0.60;0.60;;;;;;;;;;4775638;29;20042;-94
2023/12/23 11:26:42;;;;;;;;;;;;;;;;;;;;;
2023/12/23 11:33:49;;;;;;;1.55;0.70;;;;;;;;;;4828421;29;20514;-92
2023/12/23 11:43:07;;;;;;;;;;;;;;;;;;;;;
2023/12/23 12:22:08;;;;;;;0.82;0.82;;;;;;;;;;4711303;30;20147;-94
2023/12/23 12:25:31;;;;;;;1.23;1.10;;;;;;;;;;4737925;30;20056;-94
2023/12/23 12:34:27;;;;;;;1.30;1.20;;;;;;;;;;4738614;29;20074;-93
2023/12/23 12:37:27;;;;;;;;;;;;;;;;;;;;;
2023/12/23 12:44:24;;;;;;;;;;;;;;;;;;;;;
2023/12/23 12:54:23;;;;;;;2.45;2.03;;;;;;;;;;4712431;30;20075;-94
2023/12/23 12:57:36;;;;;;;1.50;1.40;;;;;;;;;;4691182;30;20116;-94
2023/12/23 13:00:42;;;;;;;;;;;;;;;;;;;;;
2023/12/23 13:12:28;;;;;;;4.35;2.63;;;;;;;;;;4736587;30;20056;-96
2023/12/23 13:17:51;;;;;;;4.03;2.95;;;;;;;;;;4838187;29;20078;-95
2023/12/23 13:26:55;;;;;;;;;;;;;;;;;;;;;
2023/12/23 13:33:43;;;;;;;4.25;2.17;;;;;;;;;;4920686;23;20127;-94
2023/12/23 13:37:01;;;;;;;4.85;2.30;;;;;;;;;;4796143;29;20524;-95
2023/12/23 13:40:10;;;;;;;;;;;;;;;;;;;;;
2023/12/23 14:14:45;;;;;;;18.70;3.38;;;;;;;;;;4854388;24;20054;-93
2023/12/23 14:32:01;;;;;;;21.65;4.40;;;;;;;;;;4489632;27;20050;-91
2023/12/23 14:35:02;;;;;;;18.65;5.15;;;;;;;;;;4790903;29;20552;-91
2023/12/23 14:37:51;;;;;;;16.60;5.65;;;;;;;;;;4855532;29;20053;-91
2023/12/23 15:33:54;;;;;;;9.55;2.88;;;;;;;;;;4932638;24;20061;-94
2023/12/23 15:40:03;;;;;;;23.25;6.78;;;;;;;;;;4945668;24;20055;-92
2023/12/23 15:42:44;;;;;;;43.83;18.52;;;;;;;;;;4777180;29;20500;-91
2023/12/23 15:45:48;;;;;;;16.98;4.80;;;;;;;;;;4785121;29;20515;-91
2023/12/23 15:54:53;;;;;;;15.77;4.95;;;;;;;;;;4976860;24;20050;-91
2023/12/23 16:03:45;;;;;;;17.73;3.38;;;;;;;;;;2582632;24;20056;-91
2023/12/23 16:16:47;;;;;;;19.13;4.22;;;;;;;;;;4912927;24;20058;-89
2023/12/23 19:28:01;;;;;;;12.27;3.30;;;;;;;;;;1454785;24;20334;-90
2023/12/23 19:34:03;;;;;;;;;;;;;;;;;;;;;
2023/12/23 19:36:39;;;;;;;4.32;1.73;;;;;;;;;;4863747;24;20537;-93
2023/12/23 19:39:09;;;;;;;12.60;3.58;;;;;;;;;;4846393;29;20053;-91
2023/12/23 19:41:40;;;;;;;15.20;2.92;;;;;;;;;;4831364;29;20126;-92
2023/12/23 19:44:10;;;;;;;7.07;2.60;;;;;;;;;;4845261;29;20570;-92
2023/12/23 19:46:39;;;;;;;11.25;3.63;;;;;;;;;;4829033;29;20406;-90
2023/12/23 19:49:05;;;;;;;12.10;2.90;;;;;;;;;;4846047;29;20096;-90
2023/12/23 19:54:06;;;;;;;6.93;2.53;;;;;;;;;;4810515;23;20412;-91
2023/12/23 19:56:54;;;;;;;5.07;2.45;;;;;;;;;;4807370;24;20404;-91
2023/12/23 20:08:18;;;;;;;9.27;2.78;;;;;;;;;;4852813;29;20057;-92
2023/12/23 20:10:53;;;;;;;8.05;3.03;;;;;;;;;;4826832;29;20058;-92
2023/12/23 20:13:34;;;;;;;10.82;2.83;;;;;;;;;;4891617;24;20175;-91
2023/12/23 20:16:13;;;;;;;7.90;2.28;;;;;;;;;;4843645;29;20096;-92
2023/12/23 20:19:19;;;;;;;;;;;;;;;;;;;;;
2023/12/23 20:30:27;;;;;;;10.65;2.90;;;;;;;;;;4820556;29;20061;-90
2023/12/23 20:33:06;;;;;;;8.85;3.13;;;;;;;;;;4803370;29;20305;-91
2023/12/23 20:36:07;;;;;;;10.25;3.08;;;;;;;;;;4816689;29;20081;-90
2023/12/23 20:39:18;;;;;;;5.70;1.80;;;;;;;;;;4818754;29;20073;-90
2023/12/23 20:41:57;;;;;;;9.98;2.83;;;;;;;;;;4806920;29;20058;-90
2023/12/23 20:44:58;;;;;;;6.60;3.00;;;;;;;;;;4819208;24;20057;-93
2023/12/23 22:07:20;;;;;;;7.35;2.33;;;;;;;;;;4818359;29;20070;-92
2023/12/23 22:14:11;;;;;;;16.73;3.15;;;;;;;;;;4781739;30;20058;-93
2023/12/23 22:16:40;;;;;;;10.73;2.75;;;;;;;;;;4739964;30;20052;-93
2023/12/23 22:19:12;;;;;;;7.70;2.55;;;;;;;;;;4753212;30;20067;-93
2023/12/23 22:21:44;;;;;;;4.45;2.45;;;;;;;;;;4782644;30;20156;-93
2023/12/23 22:24:10;;;;;;;13.10;2.35;;;;;;;;;;4780536;30;20058;-93
2023/12/23 22:26:49;;;;;;;18.95;3.72;;;;;;;;;;4782350;30;20549;-94
2023/12/23 22:29:34;;;;;;;7.15;2.28;;;;;;;;;;4753115;30;20059;-93
2023/12/23 22:32:21;;;;;;;10.43;2.55;;;;;;;;;;4785221;30;20054;-94
2023/12/23 22:35:30;;;;;;;13.52;2.55;;;9.40;99.90;;;;;;4755380;30;20060;-94
2023/12/23 22:38:11;;;;;;;13.05;2.97;;;;;;;;;;4752213;30;20052;-94
2023/12/23 22:40:37;;;;;;;13.32;2.75;;;;;;;;;;4769306;30;20060;-94
2023/12/23 22:43:22;;;;;;;15.45;2.60;;;;;;;;;;4762506;30;20079;-94
2023/12/23 22:45:48;;;;;;;14.70;2.50;;;;;;;;;;4768116;30;20063;-92
2023/12/23 22:48:14;;;;;;;6.30;2.85;;;;;;;;;;4770013;30;20055;-93
2023/12/23 22:50:40;;;;;;;9.70;4.55;;;;;;;;;;4768800;30;20211;-95
2023/12/23 22:53:07;;;;;;;11.57;2.33;;;;;;;;;;4772637;29;20051;-95
2023/12/23 22:55:33;;;;;;;13.23;3.15;;;;;;;;;;4785768;29;20536;-93
2023/12/23 22:58:14;;;;;;;10.35;2.97;;;;;;;;;;4785607;30;20058;-92
2023/12/23 23:00:43;;;;;;;10.35;3.05;;;;;;;;;;4768273;30;20515;-93
2023/12/23 23:03:09;;;;;;;6.63;2.40;;;;;;;;;;4768944;30;20059;-94
2023/12/23 23:05:38;;;;;;;7.68;3.05;;;;;;;;;;4781208;29;20058;-94
2023/12/23 23:08:07;;;;;;;10.63;2.38;;;;;;;;;;4785634;29;20050;-93
2023/12/23 23:10:34;;;;;;;9.75;2.72;;;;;;;;;;4784971;29;20526;-94
2023/12/23 23:13:00;;;;;;;9.30;3.00;;;;;;;;;;4786114;29;20084;-93
2023/12/23 23:15:26;;;;;;;7.85;2.70;;;;;;;;;;4787778;29;20431;-93
2023/12/23 23:17:56;;;;;;;12.00;3.17;;;;;;;;;;4772943;29;20054;-94
2023/12/23 23:20:22;;;;;;;6.75;2.67;;;;;;;;;;4771864;29;20066;-96
2023/12/23 23:22:49;;;;;;;5.18;2.50;;;;;;;;;;4769956;29;20059;-95
2023/12/23 23:25:15;;;;;;;18.13;3.47;;;;;;;;;;4786130;29;20058;-94
2023/12/23 23:27:43;;;;;;;15.55;4.03;;;;;;;;;;4785444;29;20055;-94
2023/12/23 23:30:09;;;;;;;11.63;2.80;;;;;;;;;;4787909;29;20063;-94
2023/12/23 23:32:35;;;;;;;14.00;2.55;;;;;;;;;;4788305;29;20055;-94
2023/12/23 23:35:02;;;;;;;11.63;2.67;;;;;;;;;;4789448;29;20058;-94
2023/12/23 23:37:30;;;;;;;5.75;2.95;;;;;;;;;;4789854;29;20058;-95
2023/12/23 23:39:56;;;;;;;11.07;2.88;;;;;;;;;;4779090;30;20070;-94
2023/12/23 23:42:23;;;;;;;11.93;3.30;;;;;;;;;;4820865;24;20086;-93
2023/12/23 23:44:49;;;;;;;5.43;2.30;;;;;;;;;;4838256;29;20503;-94
2023/12/23 23:47:15;;;;;;;6.97;2.90;;;;;;;;;;4823810;29;20054;-94
2023/12/23 23:49:46;;;;;;;9.48;2.80;;;;;;;;;;4843092;29;20050;-95
2023/12/23 23:52:12;;;;;;;8.93;3.95;;;;;;;;;;4829231;29;20098;-95
2023/12/23 23:54:40;;;;;;;17.20;4.00;;;;;;;;;;4813502;29;20050;-96
2023/12/23 23:57:06;;;;;;;9.57;3.10;;;;;;;;;;4824207;29;20047;-96
2023/12/23 23:59:33;;;;;;;12.82;3.53;;;;;;;;;;4814801;29;20054;-95
